createdAt,value
2018-06-20T00:00:37.475Z,21.00
2018-06-20T00:03:04.837Z,21.00
2018-06-20T00:05:32.024Z,20.90
2018-06-20T00:07:59.167Z,21.00
2018-06-20T00:10:26.415Z,21.00
2018-06-20T00:12:53.957Z,21.10
2018-06-20T00:15:21.159Z,21.10
2018-06-20T00:17:48.263Z,21.00
2018-06-20T00:20:16.085Z,20.90
2018-06-20T00:22:43.234Z,20.90
2018-06-20T00:25:10.318Z,21.00
2018-06-20T00:27:37.469Z,21.00
2018-06-20T00:30:04.977Z,21.00
2018-06-20T00:32:32.256Z,20.90
2018-06-20T00:35:00.029Z,20.90
2018-06-20T00:37:27.398Z,20.90
2018-06-20T00:39:55.241Z,20.90
2018-06-20T00:42:22.418Z,21.00
2018-06-20T00:44:50.282Z,20.90
2018-06-20T00:47:17.438Z,21.00
2018-06-20T00:49:44.593Z,21.00
2018-06-20T00:52:11.727Z,21.10
2018-06-20T00:54:38.886Z,21.10
2018-06-20T00:57:06.208Z,21.20
2018-06-20T00:59:33.466Z,21.20
2018-06-20T01:02:01.516Z,21.10
2018-06-20T01:04:28.654Z,21.10
2018-06-20T01:06:55.845Z,21.10
2018-06-20T01:09:23.067Z,21.00
2018-06-20T01:11:50.312Z,20.90
2018-06-20T01:14:17.456Z,20.80
2018-06-20T01:16:45.011Z,20.80
2018-06-20T01:19:12.277Z,20.80
2018-06-20T01:21:39.965Z,20.90
2018-06-20T01:24:07.194Z,20.90
2018-06-20T01:26:34.381Z,20.90
2018-06-20T01:31:28.974Z,21.00
2018-06-20T01:33:56.171Z,21.00
2018-06-20T01:36:23.467Z,21.10
2018-06-20T01:38:50.643Z,21.20
2018-06-20T01:41:18.338Z,21.30
2018-06-20T01:43:45.460Z,21.20
2018-06-20T01:46:12.644Z,21.10
2018-06-20T01:48:40.406Z,21.10
2018-06-20T01:51:07.632Z,21.10
2018-06-20T01:53:35.764Z,21.00
2018-06-20T01:56:03.221Z,21.00
2018-06-20T01:58:30.326Z,21.00
2018-06-20T02:00:57.420Z,21.00
2018-06-20T02:03:24.661Z,21.00
2018-06-20T02:05:51.712Z,20.90
2018-06-20T02:08:18.835Z,20.90
2018-06-20T02:10:45.937Z,20.90
2018-06-20T02:13:13.482Z,21.00
2018-06-20T02:15:41.333Z,21.10
2018-06-20T02:18:08.382Z,21.00
2018-06-20T02:20:35.464Z,20.90
2018-06-20T02:23:02.575Z,20.80
2018-06-20T02:25:30.631Z,20.80
2018-06-20T02:27:57.832Z,20.80
2018-06-20T02:30:26.000Z,20.70
2018-06-20T02:49:40.030Z,20.30
2018-06-20T02:52:07.619Z,20.20
2018-06-20T02:54:35.132Z,20.20
2018-06-20T02:57:02.548Z,20.20
2018-06-20T02:59:29.943Z,20.20
2018-06-20T03:01:57.163Z,20.10
2018-06-20T03:04:24.356Z,20.10
2018-06-20T03:06:51.528Z,20.10
2018-06-20T03:09:24.391Z,20.10
2018-06-20T03:11:51.564Z,20.10
2018-06-20T03:14:19.001Z,20.00
2018-06-20T03:16:46.788Z,20.00
2018-06-20T03:19:14.167Z,20.00
2018-06-20T03:21:41.302Z,20.00
2018-06-20T03:26:35.670Z,20.00
2018-06-20T03:29:02.926Z,20.00
2018-06-20T03:31:30.071Z,19.90
2018-06-20T03:33:57.416Z,19.90
2018-06-20T03:36:25.156Z,19.90
2018-06-20T03:38:52.386Z,19.80
2018-06-20T03:41:19.562Z,19.80
2018-06-20T03:43:46.695Z,19.80
2018-06-20T03:46:13.813Z,19.80
2018-06-20T03:48:40.898Z,19.70
2018-06-20T03:53:35.265Z,19.80
2018-06-20T03:56:02.599Z,19.80
2018-06-20T03:58:30.316Z,19.80
2018-06-20T04:00:57.509Z,19.90
2018-06-20T04:03:24.735Z,19.90
2018-06-20T04:05:51.814Z,19.90
2018-06-20T04:08:19.075Z,19.90
2018-06-20T04:10:46.220Z,20.00
2018-06-20T04:13:13.369Z,20.10
2018-06-20T04:15:40.609Z,20.10
2018-06-20T04:18:07.707Z,20.20
2018-06-20T04:20:35.597Z,20.10
2018-06-20T04:23:02.938Z,20.20
2018-06-20T04:25:30.100Z,20.10
2018-06-20T04:27:57.397Z,20.20
2018-06-20T04:30:24.615Z,20.20
2018-06-20T04:32:52.626Z,20.10
2018-06-20T04:35:20.536Z,20.20
2018-06-20T04:37:49.199Z,20.30
2018-06-20T04:40:16.374Z,20.40
2018-06-20T04:42:43.538Z,20.30
2018-06-20T04:45:10.767Z,20.20
2018-06-20T04:47:37.890Z,20.30
2018-06-20T04:50:05.094Z,20.40
2018-06-20T04:52:32.232Z,20.40
2018-06-20T04:55:00.836Z,20.50
2018-06-20T04:57:28.294Z,20.60
2018-06-20T04:59:56.383Z,20.60
2018-06-20T05:02:23.590Z,20.60
2018-06-20T05:04:50.858Z,20.60
2018-06-20T05:07:17.997Z,20.60
2018-06-20T05:09:45.144Z,20.60
2018-06-20T05:12:13.305Z,20.70
2018-06-20T05:14:41.809Z,20.80
2018-06-20T05:17:09.273Z,20.90
2018-06-20T05:19:37.084Z,20.80
2018-06-20T05:22:04.321Z,20.90
2018-06-20T05:24:31.974Z,20.90
2018-06-20T05:26:59.912Z,20.70
2018-06-20T05:29:27.254Z,20.60
2018-06-20T05:31:54.765Z,20.60
2018-06-20T05:34:21.969Z,20.60
2018-06-20T05:36:49.345Z,20.60
2018-06-20T05:39:17.546Z,20.60
2018-06-20T05:41:45.267Z,20.70
2018-06-20T05:44:12.400Z,20.90
2018-06-20T05:46:39.735Z,21.00
2018-06-20T05:49:07.017Z,21.10
2018-06-20T05:51:34.727Z,21.00
2018-06-20T05:54:02.081Z,21.10
2018-06-20T05:56:29.343Z,21.00
2018-06-20T05:58:57.327Z,21.10
2018-06-20T06:01:24.446Z,21.20
2018-06-20T06:03:51.575Z,21.30
2018-06-20T06:06:19.284Z,21.30
2018-06-20T06:08:46.428Z,21.30
2018-06-20T06:11:14.177Z,21.30
2018-06-20T06:13:41.808Z,21.30
2018-06-20T06:16:08.963Z,21.20
2018-06-20T06:18:37.074Z,21.40
2018-06-20T06:21:05.725Z,21.50
2018-06-20T06:23:33.588Z,21.60
2018-06-20T06:26:00.782Z,21.60
2018-06-20T06:28:28.311Z,21.40
2018-06-20T06:30:58.589Z,21.30
2018-06-20T06:33:25.704Z,21.50
2018-06-20T06:35:53.163Z,21.60
2018-06-20T06:38:20.955Z,21.80
2018-06-20T06:40:48.232Z,22.00
2018-06-20T06:45:42.621Z,22.20
2018-06-20T06:48:10.202Z,22.20
2018-06-20T06:50:38.624Z,22.30
2018-06-20T06:53:06.389Z,22.30
2018-06-20T06:55:33.703Z,22.40
2018-06-20T06:58:01.008Z,22.50
2018-06-20T07:00:28.235Z,22.50
2018-06-20T07:02:55.470Z,22.60
2018-06-20T07:05:22.596Z,22.60
2018-06-20T07:07:50.371Z,22.70
2018-06-20T07:10:17.500Z,22.80
2018-06-20T07:12:44.620Z,22.80
2018-06-20T07:15:12.564Z,22.80
2018-06-20T07:17:39.864Z,22.80
2018-06-20T07:20:07.823Z,22.90
2018-06-20T07:22:35.604Z,23.00
2018-06-20T07:25:02.801Z,23.20
2018-06-20T07:27:29.951Z,23.30
2018-06-20T07:29:57.110Z,23.50
2018-06-20T07:32:24.123Z,23.60
2018-06-20T07:34:51.488Z,23.70
2018-06-20T07:37:18.964Z,23.70
2018-06-20T07:39:46.046Z,23.70
2018-06-20T07:42:13.201Z,23.80
2018-06-20T07:44:40.901Z,23.90
2018-06-20T07:47:08.052Z,23.80
2018-06-20T07:49:35.180Z,23.90
2018-06-20T07:52:02.369Z,24.00
2018-06-20T07:54:30.555Z,24.00
2018-06-20T07:56:58.095Z,24.00
2018-06-20T07:59:29.845Z,24.10
2018-06-20T08:02:14.249Z,24.10
2018-06-20T08:04:46.972Z,24.30
2018-06-20T08:07:20.429Z,24.60
2018-06-20T08:09:54.122Z,24.60
2018-06-20T08:12:27.082Z,24.50
2018-06-20T08:14:59.805Z,24.40
2018-06-20T08:17:32.668Z,24.40
2018-06-20T08:20:00.665Z,24.40
2018-06-20T08:25:01.518Z,24.40
2018-06-20T08:27:29.218Z,24.40
2018-06-20T08:29:56.269Z,24.40
2018-06-20T08:32:23.377Z,24.50
2018-06-20T08:34:51.374Z,24.60
2018-06-20T08:37:18.527Z,24.70
2018-06-20T08:39:45.743Z,24.80
2018-06-20T08:42:13.382Z,24.80
2018-06-20T08:44:40.582Z,24.70
2018-06-20T08:47:08.676Z,24.60
2018-06-20T08:49:35.816Z,24.50
2018-06-20T08:52:03.601Z,24.40
2018-06-20T08:54:30.706Z,24.40
2018-06-20T08:56:57.964Z,24.50
2018-06-20T08:59:25.056Z,24.50
2018-06-20T09:01:52.148Z,24.60
2018-06-20T09:04:25.106Z,24.70
2018-06-20T09:06:57.784Z,24.60
2018-06-20T09:09:30.427Z,24.80
2018-06-20T09:12:03.124Z,25.00
2018-06-20T09:14:34.789Z,25.10
2018-06-20T09:17:08.071Z,25.20
2018-06-20T09:19:40.826Z,25.20
2018-06-20T09:22:08.147Z,25.40
2018-06-20T09:24:35.192Z,25.50
2018-06-20T09:27:02.919Z,25.70
2018-06-20T09:29:29.982Z,25.80
2018-06-20T09:31:57.125Z,25.80
2018-06-20T09:34:24.465Z,25.80
2018-06-20T09:36:51.569Z,25.90
2018-06-20T09:39:18.668Z,25.90
2018-06-20T09:41:45.763Z,25.80
2018-06-20T09:44:12.809Z,25.70
2018-06-20T09:46:39.845Z,25.70
2018-06-20T09:49:07.006Z,25.80
2018-06-20T09:51:35.060Z,25.90
2018-06-20T09:54:02.190Z,26.10
2018-06-20T09:56:29.471Z,26.30
2018-06-20T09:59:01.121Z,26.30
2018-06-20T10:01:33.929Z,26.30
2018-06-20T10:04:06.804Z,26.40
2018-06-20T10:08:44.484Z,26.10
2018-06-20T10:11:17.603Z,25.90
2018-06-20T10:13:46.152Z,26.10
2018-06-20T10:16:13.384Z,26.10
2018-06-20T10:18:40.484Z,26.10
2018-06-20T10:21:07.746Z,26.10
2018-06-20T10:23:34.940Z,26.10
2018-06-20T10:26:02.039Z,26.30
2018-06-20T10:28:29.602Z,26.20
2018-06-20T10:30:56.984Z,26.30
2018-06-20T10:33:24.374Z,26.10
2018-06-20T10:35:51.970Z,26.20
2018-06-20T10:38:19.071Z,26.20
2018-06-20T10:40:46.241Z,26.20
2018-06-20T10:43:13.790Z,26.10
2018-06-20T10:45:47.343Z,26.20
2018-06-20T10:48:16.189Z,26.40
2018-06-20T10:50:44.487Z,26.70
2018-06-20T10:53:11.699Z,27.00
2018-06-20T10:55:39.527Z,27.30
2018-06-20T10:58:12.553Z,27.40
2018-06-20T11:00:45.877Z,27.50
2018-06-20T11:03:18.636Z,27.40
2018-06-20T11:05:51.556Z,27.40
2018-06-20T11:08:24.331Z,27.50
2018-06-20T11:10:58.542Z,27.60
2018-06-20T11:13:25.915Z,28.00
2018-06-20T11:15:53.076Z,28.20
2018-06-20T11:18:21.098Z,28.30
2018-06-20T11:20:54.837Z,28.60
2018-06-20T11:23:24.181Z,28.60
2018-06-20T11:25:51.498Z,28.80
2018-06-20T11:28:18.804Z,28.80
2018-06-20T11:30:47.068Z,28.90
2018-06-20T11:33:20.364Z,29.00
2018-06-20T11:35:51.273Z,29.00
2018-06-20T11:38:18.519Z,28.80
2018-06-20T11:40:45.586Z,28.60
2018-06-20T11:43:12.765Z,28.80
2018-06-20T11:45:46.516Z,28.90
2018-06-20T11:48:13.642Z,28.60
2018-06-20T11:50:40.795Z,28.40
2018-06-20T11:53:09.020Z,28.60
2018-06-20T11:55:37.242Z,29.10
2018-06-20T11:58:11.055Z,29.30
2018-06-20T12:00:43.758Z,29.30
2018-06-20T12:03:16.640Z,29.30
2018-06-20T12:05:49.431Z,29.50
2018-06-20T12:08:22.179Z,29.70
2018-06-20T12:10:54.932Z,30.00
2018-06-20T12:13:28.119Z,30.10
2018-06-20T12:16:00.936Z,30.20
2018-06-20T12:18:33.684Z,30.20
2018-06-20T12:23:39.544Z,30.30
2018-06-20T12:26:13.006Z,30.30
2018-06-20T12:28:46.341Z,30.30
2018-06-20T12:31:19.104Z,29.90
2018-06-20T12:33:51.894Z,29.80
2018-06-20T12:36:24.778Z,30.00
2018-06-20T12:38:58.720Z,30.30
2018-06-20T12:41:31.393Z,30.50
2018-06-20T12:44:04.300Z,30.80
2018-06-20T12:46:38.033Z,31.10
2018-06-20T12:49:05.618Z,31.30
2018-06-20T12:51:32.679Z,31.40
2018-06-20T12:53:59.787Z,31.60
2018-06-20T12:56:26.971Z,31.50
2018-06-20T13:01:21.216Z,31.50
2018-06-20T13:03:49.174Z,31.60
2018-06-20T13:06:17.261Z,31.70
2018-06-20T13:08:44.489Z,31.90
2018-06-20T13:11:12.125Z,31.70
2018-06-20T13:13:39.509Z,31.50
2018-06-20T13:16:06.781Z,31.40
2018-06-20T13:18:34.080Z,31.60
2018-06-20T13:21:01.725Z,31.70
2018-06-20T13:23:28.911Z,32.20
2018-06-20T13:25:56.004Z,32.30
2018-06-20T13:28:23.776Z,32.40
2018-06-20T13:30:56.828Z,32.50
2018-06-20T13:33:29.573Z,32.50
2018-06-20T13:36:02.278Z,32.20
2018-06-20T13:55:15.506Z,32.50
2018-06-20T13:57:43.483Z,32.60
2018-06-20T14:00:10.623Z,31.90
2018-06-20T14:02:37.748Z,31.40
2018-06-20T14:05:06.034Z,31.40
2018-06-20T14:07:33.128Z,31.40
2018-06-20T14:10:00.223Z,31.50
2018-06-20T14:12:28.913Z,31.40
2018-06-20T14:14:56.468Z,31.50
2018-06-20T14:17:23.991Z,31.80
2018-06-20T14:19:56.945Z,32.00
2018-06-20T14:22:24.134Z,32.10
2018-06-20T14:24:52.461Z,32.20
2018-06-20T14:27:20.104Z,32.10
2018-06-20T14:29:47.665Z,31.80
2018-06-20T14:32:20.653Z,32.20
2018-06-20T14:51:33.615Z,32.70
2018-06-20T14:56:28.107Z,33.00
2018-06-20T14:58:55.339Z,33.20
2018-06-20T15:01:22.575Z,33.30
2018-06-20T15:03:51.780Z,32.40
2018-06-20T15:08:46.535Z,32.40
2018-06-20T15:11:14.434Z,32.50
2018-06-20T15:13:41.547Z,32.60
2018-06-20T15:16:14.524Z,32.90
2018-06-20T15:18:41.737Z,33.20
2018-06-20T15:21:08.798Z,33.40
2018-06-20T15:23:36.609Z,33.80
2018-06-20T15:26:09.843Z,34.10
2018-06-20T15:28:44.632Z,34.30
2018-06-20T15:31:18.046Z,34.10
2018-06-20T15:33:52.686Z,33.60
2018-06-20T15:36:26.560Z,33.50
2018-06-20T15:38:53.711Z,33.60
2018-06-20T15:41:21.749Z,33.60
2018-06-20T15:43:48.914Z,33.40
2018-06-20T15:46:16.798Z,33.50
2018-06-20T15:48:44.945Z,33.90
2018-06-20T15:51:12.672Z,34.30
2018-06-20T15:53:39.790Z,34.60
2018-06-20T15:56:07.038Z,34.20
2018-06-20T15:58:34.309Z,34.40
2018-06-20T16:01:01.536Z,34.60
2018-06-20T16:03:29.120Z,34.90
2018-06-20T16:05:56.821Z,34.80
2018-06-20T16:08:24.849Z,34.20
2018-06-20T16:10:52.057Z,34.10
2018-06-20T16:13:20.121Z,33.90
2018-06-20T16:15:48.314Z,34.40
2018-06-20T16:18:17.359Z,34.70
2018-06-20T16:20:50.316Z,34.30
2018-06-20T16:23:23.184Z,33.70
2018-06-20T16:25:56.246Z,33.40
2018-06-20T16:28:29.905Z,34.20
2018-06-20T16:30:57.244Z,34.70
2018-06-20T16:33:24.728Z,34.50
2018-06-20T16:35:51.890Z,33.80
2018-06-20T16:38:19.223Z,33.70
2018-06-20T16:40:46.351Z,33.70
2018-06-20T16:43:13.593Z,34.10
2018-06-20T16:45:40.850Z,33.80
2018-06-20T16:48:08.206Z,33.60
2018-06-20T16:50:36.913Z,33.10
2018-06-20T16:53:04.150Z,33.10
2018-06-20T16:55:31.378Z,33.50
2018-06-20T16:57:58.513Z,33.90
2018-06-20T17:00:25.568Z,33.90
2018-06-20T17:02:53.590Z,34.30
2018-06-20T17:05:20.711Z,34.30
2018-06-20T17:07:47.947Z,34.20
2018-06-20T17:10:15.240Z,34.20
2018-06-20T17:12:52.099Z,34.40
2018-06-20T17:15:25.464Z,34.30
2018-06-20T17:20:31.875Z,34.00
2018-06-20T17:23:05.485Z,34.30
2018-06-20T17:25:33.350Z,34.50
2018-06-20T17:28:02.898Z,34.50
2018-06-20T17:30:30.991Z,34.50
2018-06-20T17:32:58.279Z,33.80
2018-06-20T17:35:25.425Z,33.60
2018-06-20T17:37:52.719Z,33.80
2018-06-20T17:40:19.883Z,34.10
2018-06-20T17:42:47.253Z,34.20
2018-06-20T17:45:15.518Z,34.20
2018-06-20T17:47:42.689Z,34.30
2018-06-20T17:50:09.841Z,34.00
2018-06-20T17:52:38.216Z,33.70
2018-06-20T17:55:05.471Z,33.80
2018-06-20T17:57:32.772Z,33.90
2018-06-20T17:59:59.928Z,33.20
2018-06-20T18:02:27.188Z,33.30
2018-06-20T18:04:59.944Z,33.40
2018-06-20T18:07:34.434Z,33.40
2018-06-20T18:10:08.390Z,33.50
2018-06-20T18:12:41.299Z,33.60
2018-06-20T18:15:14.429Z,33.40
2018-06-20T18:17:42.103Z,32.80
2018-06-20T18:20:10.602Z,32.80
2018-06-20T18:22:38.420Z,33.00
2018-06-20T18:25:06.460Z,33.30
2018-06-20T18:27:34.143Z,33.50
2018-06-20T18:30:02.184Z,33.40
2018-06-20T18:32:29.985Z,32.80
2018-06-20T18:34:58.584Z,32.60
2018-06-20T18:37:26.397Z,32.40
2018-06-20T18:39:59.360Z,32.30
2018-06-20T18:42:26.657Z,32.30
2018-06-20T18:47:27.152Z,32.10
2018-06-20T18:49:55.892Z,32.40
2018-06-20T18:52:23.451Z,32.60
2018-06-20T18:57:29.998Z,32.20
2018-06-20T19:00:03.359Z,32.20
2018-06-20T19:02:37.216Z,32.10
2018-06-20T19:05:11.853Z,31.60
2018-06-20T19:07:45.993Z,31.00
2018-06-20T19:10:14.245Z,30.60
2018-06-20T19:12:42.593Z,30.40
2018-06-20T19:15:11.333Z,30.20
2018-06-20T19:20:10.229Z,29.60
2018-06-20T19:22:37.927Z,29.40
2018-06-20T19:25:07.272Z,29.20
2018-06-20T19:27:34.862Z,29.20
2018-06-20T19:30:03.429Z,29.10
2018-06-20T19:32:32.154Z,29.10
2018-06-20T19:35:01.982Z,29.10
2018-06-20T19:37:30.514Z,29.10
2018-06-20T19:39:59.787Z,29.10
2018-06-20T19:42:28.682Z,29.10
2018-06-20T19:44:56.702Z,29.00
2018-06-20T19:47:25.731Z,29.00
2018-06-20T19:49:55.001Z,29.00
2018-06-20T19:52:23.134Z,29.00
2018-06-20T19:54:50.821Z,29.00
2018-06-20T19:57:18.812Z,28.90
2018-06-20T19:59:48.905Z,28.70
2018-06-20T20:02:16.328Z,28.60
2018-06-20T20:07:19.900Z,28.50
2018-06-20T20:09:47.232Z,28.40
2018-06-20T20:12:17.932Z,28.30
2018-06-20T20:14:46.730Z,28.20
2018-06-20T20:17:16.403Z,28.10
2018-06-20T20:19:43.996Z,28.00
2018-06-20T20:22:11.984Z,27.90
2018-06-20T20:24:39.983Z,27.90
2018-06-20T20:27:07.316Z,27.90
2018-06-20T20:29:35.099Z,27.80
2018-06-20T20:32:03.172Z,27.80
2018-06-20T20:34:32.158Z,27.60
2018-06-20T20:37:02.221Z,27.60
2018-06-20T20:39:30.263Z,27.60
2018-06-20T20:41:59.041Z,27.50
2018-06-20T20:44:26.373Z,27.50
2018-06-20T20:47:02.988Z,27.40
2018-06-20T20:49:30.601Z,27.40
2018-06-20T20:51:59.044Z,27.20
2018-06-20T20:54:26.390Z,27.10
2018-06-20T20:56:56.729Z,27.00
2018-06-20T20:59:26.722Z,27.00
2018-06-20T21:01:54.315Z,27.00
2018-06-20T21:04:22.826Z,27.00
2018-06-20T21:06:51.538Z,26.90
2018-06-20T21:09:18.769Z,26.80
2018-06-20T21:11:47.678Z,26.80
2018-06-20T21:14:16.188Z,26.80
2018-06-20T21:16:44.155Z,26.70
2018-06-20T21:19:11.927Z,26.60
2018-06-20T21:21:41.070Z,26.60
2018-06-20T21:24:09.005Z,26.60
2018-06-20T21:26:37.497Z,26.50
2018-06-20T21:29:06.868Z,26.50
2018-06-20T21:31:39.108Z,26.40
2018-06-20T21:34:07.435Z,26.40
2018-06-20T21:36:35.560Z,26.40
2018-06-20T21:39:02.896Z,26.30
2018-06-20T21:41:30.153Z,26.30
2018-06-20T21:43:58.236Z,26.20
2018-06-20T21:46:25.885Z,26.10
2018-06-20T21:48:54.116Z,26.10
2018-06-20T21:51:21.269Z,26.00
2018-06-20T21:53:48.461Z,25.90
2018-06-20T21:56:15.760Z,25.90
2018-06-20T21:58:43.599Z,25.80
2018-06-20T22:01:10.738Z,25.80
2018-06-20T22:20:24.342Z,25.50
2018-06-20T22:22:52.076Z,25.50
2018-06-20T22:27:46.297Z,25.50
2018-06-20T22:30:13.909Z,25.40
2018-06-20T22:32:40.994Z,25.30
2018-06-20T22:49:17.215Z,25.20
2018-06-20T22:51:44.295Z,25.10
2018-06-20T22:54:11.467Z,25.00
2018-06-20T22:56:39.305Z,25.00
2018-06-20T22:59:06.394Z,25.00
2018-06-20T23:01:33.500Z,24.80
2018-06-20T23:04:00.629Z,24.80
2018-06-20T23:06:27.735Z,24.80
2018-06-20T23:08:54.829Z,24.70
2018-06-20T23:13:49.662Z,24.60
2018-06-20T23:16:16.692Z,24.50
2018-06-20T23:18:43.796Z,24.40
2018-06-20T23:21:10.966Z,24.40
2018-06-20T23:23:38.016Z,24.40
2018-06-20T23:26:05.094Z,24.50
2018-06-20T23:28:32.253Z,24.30
2018-06-20T23:30:59.391Z,24.20
2018-06-20T23:33:26.451Z,24.20
2018-06-20T23:35:53.546Z,24.30
2018-06-20T23:38:20.638Z,24.30
2018-06-20T23:40:47.764Z,24.30
2018-06-20T23:43:15.532Z,24.30
2018-06-20T23:45:42.615Z,24.20
2018-06-20T23:48:09.758Z,24.20
2018-06-20T23:50:36.818Z,24.10
2018-06-20T23:53:04.711Z,24.00
2018-06-20T23:55:31.873Z,24.00
2018-06-20T23:57:59.655Z,23.90
